sensor_id;sensor_type;location;lat;lon;timestamp;noise_LAeq;noise_LA_min;noise_LA_max;noise_LA01;noise_LA95
70245;Laerm;57637;49.272;8.590;2023-08-24T00:00:18;46.91;41.55;55.77;;
70245;Laerm;57637;49.272;8.590;2023-08-24T00:02:44;46.87;42.25;52.74;;
70245;Laerm;57637;49.272;8.590;2023-08-24T00:05:10;46.23;39.76;55.36;;
70245;Laerm;57637;49.272;8.590;2023-08-24T00:07:36;46.23;41.90;52.28;;
70245;Laerm;57637;49.272;8.590;2023-08-24T00:10:01;45.53;40.61;53.12;;
70245;Laerm;57637;49.272;8.590;2023-08-24T00:12:29;45.43;40.42;53.47;;
70245;Laerm;57637;49.272;8.590;2023-08-24T00:14:55;46.51;41.46;51.68;;
70245;Laerm;57637;49.272;8.590;2023-08-24T00:17:20;46.18;40.40;54.02;;
70245;Laerm;57637;49.272;8.590;2023-08-24T00:19:46;48.12;42.54;58.13;;
70245;Laerm;57637;49.272;8.590;2023-08-24T00:22:11;47.52;42.63;55.57;;
70245;Laerm;57637;49.272;8.590;2023-08-24T00:24:37;44.98;40.85;51.66;;
70245;Laerm;57637;49.272;8.590;2023-08-24T00:27:02;43.63;39.46;56.71;;
70245;Laerm;57637;49.272;8.590;2023-08-24T00:29:28;42.57;38.31;55.58;;
70245;Laerm;57637;49.272;8.590;2023-08-24T00:31:53;44.63;40.30;59.50;;
70245;Laerm;57637;49.272;8.590;2023-08-24T00:34:18;43.86;39.66;49.04;;
70245;Laerm;57637;49.272;8.590;2023-08-24T00:36:44;42.74;37.97;63.83;;
70245;Laerm;57637;49.272;8.590;2023-08-24T00:39:09;43.94;39.41;49.61;;
70245;Laerm;57637;49.272;8.590;2023-08-24T00:41:35;43.50;39.61;50.22;;
70245;Laerm;57637;49.272;8.590;2023-08-24T00:44:00;46.78;40.54;60.37;;
70245;Laerm;57637;49.272;8.590;2023-08-24T00:46:27;45.09;38.60;51.14;;
70245;Laerm;57637;49.272;8.590;2023-08-24T00:48:54;47.24;41.29;54.07;;
70245;Laerm;57637;49.272;8.590;2023-08-24T00:51:23;47.01;41.75;52.56;;
70245;Laerm;57637;49.272;8.590;2023-08-24T00:53:49;46.87;42.85;51.82;;
70245;Laerm;57637;49.272;8.590;2023-08-24T00:56:15;46.83;42.14;55.20;;
70245;Laerm;57637;49.272;8.590;2023-08-24T00:58:40;46.45;42.10;52.54;;
70245;Laerm;57637;49.272;8.590;2023-08-24T01:01:06;46.70;42.18;58.04;;
70245;Laerm;57637;49.272;8.590;2023-08-24T01:03:32;46.37;41.15;53.63;;
70245;Laerm;57637;49.272;8.590;2023-08-24T01:05:57;46.80;42.13;54.50;;
70245;Laerm;57637;49.272;8.590;2023-08-24T01:08:24;47.22;43.12;54.46;;
70245;Laerm;57637;49.272;8.590;2023-08-24T01:13:59;45.69;40.24;50.92;;
70245;Laerm;57637;49.272;8.590;2023-08-24T01:16:31;46.52;41.72;52.58;;
70245;Laerm;57637;49.272;8.590;2023-08-24T01:18:59;46.13;41.15;53.36;;
70245;Laerm;57637;49.272;8.590;2023-08-24T01:21:26;46.41;40.69;54.03;;
70245;Laerm;57637;49.272;8.590;2023-08-24T01:24:24;47.38;42.48;57.48;;
70245;Laerm;57637;49.272;8.590;2023-08-24T01:26:55;46.81;41.74;53.48;;
70245;Laerm;57637;49.272;8.590;2023-08-24T01:29:21;46.37;41.37;55.49;;
70245;Laerm;57637;49.272;8.590;2023-08-24T01:31:48;46.39;40.86;51.37;;
70245;Laerm;57637;49.272;8.590;2023-08-24T01:34:14;45.52;41.01;52.22;;
70245;Laerm;57637;49.272;8.590;2023-08-24T01:36:40;47.33;41.06;61.41;;
70245;Laerm;57637;49.272;8.590;2023-08-24T01:39:11;47.44;42.32;54.02;;
70245;Laerm;57637;49.272;8.590;2023-08-24T01:41:41;47.91;43.75;52.78;;
70245;Laerm;57637;49.272;8.590;2023-08-24T01:44:12;47.29;42.62;55.00;;
70245;Laerm;57637;49.272;8.590;2023-08-24T01:46:39;47.88;41.06;55.26;;
70245;Laerm;57637;49.272;8.590;2023-08-24T01:49:07;46.63;41.80;54.19;;
70245;Laerm;57637;49.272;8.590;2023-08-24T01:51:34;46.61;42.18;54.91;;
70245;Laerm;57637;49.272;8.590;2023-08-24T01:54:00;46.87;41.72;51.31;;
70245;Laerm;57637;49.272;8.590;2023-08-24T01:56:25;47.81;43.48;52.20;;
70245;Laerm;57637;49.272;8.590;2023-08-24T01:58:51;47.36;43.95;51.68;;
70245;Laerm;57637;49.272;8.590;2023-08-24T02:01:16;46.97;43.12;52.01;;
70245;Laerm;57637;49.272;8.590;2023-08-24T02:03:42;47.15;43.14;52.13;;
70245;Laerm;57637;49.272;8.590;2023-08-24T02:06:07;47.53;42.55;54.97;;
70245;Laerm;57637;49.272;8.590;2023-08-24T02:08:33;46.47;42.07;51.98;;
70245;Laerm;57637;49.272;8.590;2023-08-24T02:10:59;46.12;42.32;56.45;;
70245;Laerm;57637;49.272;8.590;2023-08-24T02:13:24;46.61;42.70;51.96;;
70245;Laerm;57637;49.272;8.590;2023-08-24T02:15:49;45.98;41.75;51.97;;
70245;Laerm;57637;49.272;8.590;2023-08-24T02:18:15;45.69;40.73;51.11;;
70245;Laerm;57637;49.272;8.590;2023-08-24T02:20:40;46.84;42.21;52.58;;
70245;Laerm;57637;49.272;8.590;2023-08-24T02:23:06;46.33;42.00;52.67;;
70245;Laerm;57637;49.272;8.590;2023-08-24T02:25:31;45.73;41.14;55.68;;
70245;Laerm;57637;49.272;8.590;2023-08-24T02:27:58;46.31;42.31;51.75;;
70245;Laerm;57637;49.272;8.590;2023-08-24T02:30:24;46.07;42.60;50.56;;
70245;Laerm;57637;49.272;8.590;2023-08-24T02:32:50;47.09;43.38;51.81;;
70245;Laerm;57637;49.272;8.590;2023-08-24T02:35:16;47.43;43.71;50.84;;
70245;Laerm;57637;49.272;8.590;2023-08-24T02:37:41;46.21;42.35;50.35;;
70245;Laerm;57637;49.272;8.590;2023-08-24T02:40:07;44.52;41.06;48.92;;
70245;Laerm;57637;49.272;8.590;2023-08-24T02:42:34;45.61;41.27;48.98;;
70245;Laerm;57637;49.272;8.590;2023-08-24T02:45:00;44.79;41.37;50.16;;
70245;Laerm;57637;49.272;8.590;2023-08-24T02:47:25;46.25;41.51;51.19;;
70245;Laerm;57637;49.272;8.590;2023-08-24T02:49:50;47.05;41.10;53.07;;
70245;Laerm;57637;49.272;8.590;2023-08-24T02:52:17;44.73;41.15;52.31;;
70245;Laerm;57637;49.272;8.590;2023-08-24T02:54:42;46.24;41.50;51.15;;
70245;Laerm;57637;49.272;8.590;2023-08-24T02:57:07;46.10;41.45;51.21;;
70245;Laerm;57637;49.272;8.590;2023-08-24T02:59:32;46.75;42.69;52.13;;
70245;Laerm;57637;49.272;8.590;2023-08-24T03:01:58;46.90;41.59;51.40;;
70245;Laerm;57637;49.272;8.590;2023-08-24T03:04:23;48.44;43.86;54.47;;
70245;Laerm;57637;49.272;8.590;2023-08-24T03:06:49;48.33;43.57;54.00;;
70245;Laerm;57637;49.272;8.590;2023-08-24T03:09:14;47.97;43.81;53.59;;
70245;Laerm;57637;49.272;8.590;2023-08-24T03:11:40;49.28;45.35;54.34;;
70245;Laerm;57637;49.272;8.590;2023-08-24T03:14:06;49.54;45.08;56.93;;
70245;Laerm;57637;49.272;8.590;2023-08-24T03:16:31;49.55;45.75;57.29;;
70245;Laerm;57637;49.272;8.590;2023-08-24T03:18:56;50.57;46.12;61.53;;
70245;Laerm;57637;49.272;8.590;2023-08-24T03:21:22;49.69;45.74;54.09;;
70245;Laerm;57637;49.272;8.590;2023-08-24T03:23:47;50.20;44.81;56.30;;
70245;Laerm;57637;49.272;8.590;2023-08-24T03:26:12;50.75;46.88;55.17;;
70245;Laerm;57637;49.272;8.590;2023-08-24T03:28:38;49.69;45.49;55.58;;
70245;Laerm;57637;49.272;8.590;2023-08-24T03:31:03;50.56;45.59;56.98;;
70245;Laerm;57637;49.272;8.590;2023-08-24T03:33:28;50.15;45.73;54.99;;
70245;Laerm;57637;49.272;8.590;2023-08-24T03:35:54;50.38;45.61;56.04;;
70245;Laerm;57637;49.272;8.590;2023-08-24T03:38:19;50.40;45.99;57.07;;
70245;Laerm;57637;49.272;8.590;2023-08-24T03:40:45;50.69;46.07;55.42;;
70245;Laerm;57637;49.272;8.590;2023-08-24T03:43:10;50.49;45.60;56.64;;
70245;Laerm;57637;49.272;8.590;2023-08-24T03:45:36;48.17;44.64;53.85;;
70245;Laerm;57637;49.272;8.590;2023-08-24T03:48:02;47.71;43.60;54.13;;
70245;Laerm;57637;49.272;8.590;2023-08-24T03:50:27;48.28;43.73;54.32;;
70245;Laerm;57637;49.272;8.590;2023-08-24T03:52:54;49.89;45.29;56.56;;
70245;Laerm;57637;49.272;8.590;2023-08-24T03:55:20;50.31;46.88;57.38;;
70245;Laerm;57637;49.272;8.590;2023-08-24T03:57:45;49.53;45.85;54.08;;
70245;Laerm;57637;49.272;8.590;2023-08-24T04:00:11;50.77;46.78;56.59;;
70245;Laerm;57637;49.272;8.590;2023-08-24T04:02:45;50.77;46.73;54.50;;
70245;Laerm;57637;49.272;8.590;2023-08-24T04:05:11;50.66;46.57;55.53;;
70245;Laerm;57637;49.272;8.590;2023-08-24T04:07:37;51.10;47.26;55.82;;
70245;Laerm;57637;49.272;8.590;2023-08-24T04:10:03;51.40;47.94;55.75;;
70245;Laerm;57637;49.272;8.590;2023-08-24T04:12:32;51.73;48.21;55.41;;
70245;Laerm;57637;49.272;8.590;2023-08-24T04:14:58;51.97;48.03;57.86;;
70245;Laerm;57637;49.272;8.590;2023-08-24T04:17:24;51.76;47.90;64.86;;
70245;Laerm;57637;49.272;8.590;2023-08-24T04:19:49;51.44;47.72;55.20;;
70245;Laerm;57637;49.272;8.590;2023-08-24T04:22:15;51.15;47.27;56.84;;
70245;Laerm;57637;49.272;8.590;2023-08-24T04:24:40;50.43;47.10;54.36;;
70245;Laerm;57637;49.272;8.590;2023-08-24T04:27:06;50.13;46.25;55.96;;
70245;Laerm;57637;49.272;8.590;2023-08-24T04:29:31;51.23;46.20;69.10;;
70245;Laerm;57637;49.272;8.590;2023-08-24T04:31:57;50.31;47.07;55.12;;
70245;Laerm;57637;49.272;8.590;2023-08-24T04:34:22;49.40;45.80;58.13;;
70245;Laerm;57637;49.272;8.590;2023-08-24T04:36:48;48.91;45.63;52.77;;
70245;Laerm;57637;49.272;8.590;2023-08-24T04:39:13;48.76;44.74;54.44;;
70245;Laerm;57637;49.272;8.590;2023-08-24T04:41:38;49.84;45.23;54.42;;
70245;Laerm;57637;49.272;8.590;2023-08-24T04:44:04;49.78;45.85;54.32;;
70245;Laerm;57637;49.272;8.590;2023-08-24T04:46:29;50.23;46.94;54.03;;
70245;Laerm;57637;49.272;8.590;2023-08-24T04:48:54;50.36;46.66;56.53;;
70245;Laerm;57637;49.272;8.590;2023-08-24T04:51:20;51.12;47.76;56.08;;
70245;Laerm;57637;49.272;8.590;2023-08-24T04:53:45;50.63;46.35;58.04;;
70245;Laerm;57637;49.272;8.590;2023-08-24T04:56:11;50.48;46.54;58.02;;
70245;Laerm;57637;49.272;8.590;2023-08-24T04:58:36;50.45;47.03;59.58;;
70245;Laerm;57637;49.272;8.590;2023-08-24T05:01:01;50.62;47.18;56.71;;
70245;Laerm;57637;49.272;8.590;2023-08-24T05:03:27;50.66;46.73;58.81;;
70245;Laerm;57637;49.272;8.590;2023-08-24T05:05:52;50.10;46.43;55.82;;
70245;Laerm;57637;49.272;8.590;2023-08-24T05:08:17;50.14;46.59;54.59;;
70245;Laerm;57637;49.272;8.590;2023-08-24T05:10:43;50.87;47.44;55.73;;
70245;Laerm;57637;49.272;8.590;2023-08-24T05:13:09;50.48;47.35;55.05;;
70245;Laerm;57637;49.272;8.590;2023-08-24T05:15:34;51.09;47.27;58.25;;
70245;Laerm;57637;49.272;8.590;2023-08-24T05:17:59;51.72;48.33;58.84;;
70245;Laerm;57637;49.272;8.590;2023-08-24T05:20:25;50.84;47.29;56.25;;
70245;Laerm;57637;49.272;8.590;2023-08-24T05:22:52;51.83;47.87;63.97;;
70245;Laerm;57637;49.272;8.590;2023-08-24T05:25:20;50.50;46.40;67.54;;
70245;Laerm;57637;49.272;8.590;2023-08-24T05:27:45;50.40;46.88;58.97;;
70245;Laerm;57637;49.272;8.590;2023-08-24T05:30:11;51.07;45.42;68.38;;
70245;Laerm;57637;49.272;8.590;2023-08-24T05:32:36;50.99;47.25;70.50;;
70245;Laerm;57637;49.272;8.590;2023-08-24T05:35:05;50.51;46.93;59.53;;
70245;Laerm;57637;49.272;8.590;2023-08-24T05:37:31;51.26;47.64;59.58;;
70245;Laerm;57637;49.272;8.590;2023-08-24T05:39:57;51.16;47.75;56.46;;
70245;Laerm;57637;49.272;8.590;2023-08-24T05:42:22;51.58;47.95;60.86;;
70245;Laerm;57637;49.272;8.590;2023-08-24T05:44:47;51.61;48.05;69.61;;
70245;Laerm;57637;49.272;8.590;2023-08-24T05:47:13;50.45;46.63;67.69;;
70245;Laerm;57637;49.272;8.590;2023-08-24T05:49:38;49.14;42.35;61.12;;
70245;Laerm;57637;49.272;8.590;2023-08-24T05:52:04;47.19;42.91;60.50;;
70245;Laerm;57637;49.272;8.590;2023-08-24T05:54:29;52.13;42.86;72.36;;
70245;Laerm;57637;49.272;8.590;2023-08-24T05:56:55;48.08;44.04;69.15;;
70245;Laerm;57637;49.272;8.590;2023-08-24T05:59:20;47.44;43.10;65.52;;
70245;Laerm;57637;49.272;8.590;2023-08-24T06:01:46;49.55;43.04;64.37;;
70245;Laerm;57637;49.272;8.590;2023-08-24T06:04:11;48.51;44.78;54.39;;
70245;Laerm;57637;49.272;8.590;2023-08-24T06:06:36;47.84;43.70;62.05;;
70245;Laerm;57637;49.272;8.590;2023-08-24T06:09:03;47.31;43.52;53.62;;
70245;Laerm;57637;49.272;8.590;2023-08-24T06:11:32;48.74;44.98;60.85;;
70245;Laerm;57637;49.272;8.590;2023-08-24T06:13:58;49.01;44.34;69.62;;
70245;Laerm;57637;49.272;8.590;2023-08-24T06:16:24;47.80;44.20;54.88;;
70245;Laerm;57637;49.272;8.590;2023-08-24T06:18:49;46.98;43.08;54.45;;
70245;Laerm;57637;49.272;8.590;2023-08-24T06:21:16;47.88;41.62;60.95;;
70245;Laerm;57637;49.272;8.590;2023-08-24T06:23:41;47.16;42.56;66.24;;
70245;Laerm;57637;49.272;8.590;2023-08-24T06:26:07;48.88;43.54;66.74;;
70245;Laerm;57637;49.272;8.590;2023-08-24T06:28:32;46.58;42.75;64.50;;
70245;Laerm;57637;49.272;8.590;2023-08-24T06:30:59;48.05;43.46;63.62;;
70245;Laerm;57637;49.272;8.590;2023-08-24T06:33:28;47.50;43.82;57.39;;
70245;Laerm;57637;49.272;8.590;2023-08-24T06:35:56;47.74;43.82;55.13;;
70245;Laerm;57637;49.272;8.590;2023-08-24T06:38:21;47.87;44.65;56.74;;
70245;Laerm;57637;49.272;8.590;2023-08-24T06:40:47;47.14;43.30;64.58;;
70245;Laerm;57637;49.272;8.590;2023-08-24T06:43:12;46.71;43.37;52.64;;
70245;Laerm;57637;49.272;8.590;2023-08-24T06:45:37;47.14;43.58;57.63;;
70245;Laerm;57637;49.272;8.590;2023-08-24T06:48:03;48.68;45.09;57.97;;
70245;Laerm;57637;49.272;8.590;2023-08-24T06:50:30;49.21;45.27;56.37;;
70245;Laerm;57637;49.272;8.590;2023-08-24T06:52:56;48.87;45.50;53.11;;
70245;Laerm;57637;49.272;8.590;2023-08-24T06:55:21;48.17;44.86;54.81;;
70245;Laerm;57637;49.272;8.590;2023-08-24T06:57:48;49.01;45.43;56.67;;
70245;Laerm;57637;49.272;8.590;2023-08-24T07:00:16;47.95;44.21;54.04;;
70245;Laerm;57637;49.272;8.590;2023-08-24T07:02:42;48.39;44.49;65.73;;
70245;Laerm;57637;49.272;8.590;2023-08-24T07:05:07;48.50;44.40;59.90;;
70245;Laerm;57637;49.272;8.590;2023-08-24T07:07:34;47.45;43.41;60.00;;
70245;Laerm;57637;49.272;8.590;2023-08-24T07:10:00;47.76;43.34;65.58;;
70245;Laerm;57637;49.272;8.590;2023-08-24T07:12:25;45.99;42.66;53.04;;
70245;Laerm;57637;49.272;8.590;2023-08-24T07:14:51;45.86;42.08;56.94;;
70245;Laerm;57637;49.272;8.590;2023-08-24T07:17:16;47.23;42.65;64.42;;
70245;Laerm;57637;49.272;8.590;2023-08-24T07:19:43;49.06;44.41;58.69;;
70245;Laerm;57637;49.272;8.590;2023-08-24T07:22:08;46.63;42.72;67.10;;
70245;Laerm;57637;49.272;8.590;2023-08-24T07:24:34;46.35;42.84;60.03;;
70245;Laerm;57637;49.272;8.590;2023-08-24T07:27:01;46.42;42.76;61.65;;
70245;Laerm;57637;49.272;8.590;2023-08-24T07:29:26;46.57;42.06;61.38;;
70245;Laerm;57637;49.272;8.590;2023-08-24T07:31:51;46.44;41.16;64.76;;
70245;Laerm;57637;49.272;8.590;2023-08-24T07:34:17;46.88;41.94;69.40;;
70245;Laerm;57637;49.272;8.590;2023-08-24T07:36:42;46.70;41.71;65.95;;
70245;Laerm;57637;49.272;8.590;2023-08-24T07:39:10;47.41;41.33;70.79;;
70245;Laerm;57637;49.272;8.590;2023-08-24T07:41:35;44.18;40.43;57.95;;
70245;Laerm;57637;49.272;8.590;2023-08-24T07:44:00;45.19;40.35;60.19;;
70245;Laerm;57637;49.272;8.590;2023-08-24T07:46:26;47.57;40.19;65.34;;
70245;Laerm;57637;49.272;8.590;2023-08-24T07:48:51;47.93;39.72;74.20;;
70245;Laerm;57637;49.272;8.590;2023-08-24T07:51:16;45.24;39.88;67.26;;
70245;Laerm;57637;49.272;8.590;2023-08-24T07:53:42;46.10;40.20;60.25;;
70245;Laerm;57637;49.272;8.590;2023-08-24T07:56:07;44.23;39.38;63.42;;
70245;Laerm;57637;49.272;8.590;2023-08-24T07:58:32;45.80;39.71;61.66;;
70245;Laerm;57637;49.272;8.590;2023-08-24T08:00:59;43.73;37.78;56.52;;
70245;Laerm;57637;49.272;8.590;2023-08-24T08:03:25;43.62;38.64;62.59;;
70245;Laerm;57637;49.272;8.590;2023-08-24T08:05:50;42.21;37.48;60.69;;
70245;Laerm;57637;49.272;8.590;2023-08-24T08:08:16;44.14;37.96;68.28;;
70245;Laerm;57637;49.272;8.590;2023-08-24T08:10:42;51.61;36.98;80.32;;
70245;Laerm;57637;49.272;8.590;2023-08-24T08:13:08;42.54;37.53;63.02;;
70245;Laerm;57637;49.272;8.590;2023-08-24T08:15:34;43.70;38.54;57.82;;
70245;Laerm;57637;49.272;8.590;2023-08-24T08:17:59;42.93;37.41;59.70;;
70245;Laerm;57637;49.272;8.590;2023-08-24T08:20:24;41.96;37.11;51.96;;
70245;Laerm;57637;49.272;8.590;2023-08-24T08:22:50;41.37;36.30;53.99;;
70245;Laerm;57637;49.272;8.590;2023-08-24T08:25:16;40.86;36.58;45.99;;
70245;Laerm;57637;49.272;8.590;2023-08-24T08:27:44;41.78;36.66;54.77;;
70245;Laerm;57637;49.272;8.590;2023-08-24T08:30:10;42.01;37.63;48.18;;
70245;Laerm;57637;49.272;8.590;2023-08-24T08:32:35;42.92;37.58;58.09;;
70245;Laerm;57637;49.272;8.590;2023-08-24T08:35:01;42.46;37.97;62.03;;
70245;Laerm;57637;49.272;8.590;2023-08-24T08:37:27;41.52;37.92;53.94;;
70245;Laerm;57637;49.272;8.590;2023-08-24T08:39:52;42.64;38.19;55.08;;
70245;Laerm;57637;49.272;8.590;2023-08-24T08:42:18;42.38;38.40;50.41;;
70245;Laerm;57637;49.272;8.590;2023-08-24T08:44:46;45.24;39.57;68.66;;
70245;Laerm;57637;49.272;8.590;2023-08-24T08:47:12;46.77;42.02;57.63;;
70245;Laerm;57637;49.272;8.590;2023-08-24T08:49:43;44.31;40.13;56.83;;
70245;Laerm;57637;49.272;8.590;2023-08-24T08:52:09;43.65;39.27;61.07;;
70245;Laerm;57637;49.272;8.590;2023-08-24T08:54:34;55.69;39.16;66.59;;
70245;Laerm;57637;49.272;8.590;2023-08-24T08:57:00;60.72;43.30;71.40;;
70245;Laerm;57637;49.272;8.590;2023-08-24T08:59:27;57.48;43.18;66.05;;
70245;Laerm;57637;49.272;8.590;2023-08-24T09:01:57;56.13;40.67;73.30;;
70245;Laerm;57637;49.272;8.590;2023-08-24T09:04:29;47.41;39.58;58.31;;
70245;Laerm;57637;49.272;8.590;2023-08-24T09:06:55;46.80;38.69;63.15;;
70245;Laerm;57637;49.272;8.590;2023-08-24T09:09:21;52.95;37.55;67.48;;
70245;Laerm;57637;49.272;8.590;2023-08-24T09:11:48;56.09;40.15;65.05;;
70245;Laerm;57637;49.272;8.590;2023-08-24T09:14:14;56.55;48.92;63.81;;
70245;Laerm;57637;49.272;8.590;2023-08-24T09:16:41;57.86;45.40;66.50;;
70245;Laerm;57637;49.272;8.590;2023-08-24T09:19:06;58.67;41.74;73.91;;
70245;Laerm;57637;49.272;8.590;2023-08-24T09:21:37;42.69;37.50;60.79;;
70245;Laerm;57637;49.272;8.590;2023-08-24T09:24:02;48.54;37.98;69.56;;
70245;Laerm;57637;49.272;8.590;2023-08-24T09:26:30;48.60;38.66;69.28;;
70245;Laerm;57637;49.272;8.590;2023-08-24T09:28:56;42.35;37.87;56.88;;
70245;Laerm;57637;49.272;8.590;2023-08-24T09:31:23;42.18;37.83;56.36;;
70245;Laerm;57637;49.272;8.590;2023-08-24T09:33:49;42.23;38.02;60.13;;
70245;Laerm;57637;49.272;8.590;2023-08-24T09:36:15;49.68;37.43;70.48;;
70245;Laerm;57637;49.272;8.590;2023-08-24T09:38:47;54.07;39.05;79.45;;
70245;Laerm;57637;49.272;8.590;2023-08-24T09:41:13;45.71;39.36;67.90;;
70245;Laerm;57637;49.272;8.590;2023-08-24T09:43:39;47.16;38.40;56.91;;
70245;Laerm;57637;49.272;8.590;2023-08-24T09:46:05;46.09;38.94;61.68;;
70245;Laerm;57637;49.272;8.590;2023-08-24T09:48:32;46.19;38.46;63.80;;
70245;Laerm;57637;49.272;8.590;2023-08-24T09:50:57;44.17;38.21;63.91;;
70245;Laerm;57637;49.272;8.590;2023-08-24T09:53:25;46.61;37.90;69.48;;
70245;Laerm;57637;49.272;8.590;2023-08-24T09:55:55;45.76;38.34;69.37;;
70245;Laerm;57637;49.272;8.590;2023-08-24T09:58:24;44.64;39.31;64.35;;
70245;Laerm;57637;49.272;8.590;2023-08-24T10:00:50;43.15;38.08;54.00;;
70245;Laerm;57637;49.272;8.590;2023-08-24T10:03:18;45.44;37.96;72.09;;
70245;Laerm;57637;49.272;8.590;2023-08-24T10:05:50;44.50;38.29;62.22;;
70245;Laerm;57637;49.272;8.590;2023-08-24T10:08:20;43.65;38.12;62.38;;
70245;Laerm;57637;49.272;8.590;2023-08-24T10:10:47;42.90;37.90;62.86;;
70245;Laerm;57637;49.272;8.590;2023-08-24T10:13:25;42.83;38.79;62.43;;
70245;Laerm;57637;49.272;8.590;2023-08-24T10:15:52;42.59;38.07;63.69;;
70245;Laerm;57637;49.272;8.590;2023-08-24T10:18:18;42.78;37.50;55.37;;
70245;Laerm;57637;49.272;8.590;2023-08-24T10:20:44;45.95;37.75;71.35;;
70245;Laerm;57637;49.272;8.590;2023-08-24T10:23:12;44.85;38.23;63.75;;
70245;Laerm;57637;49.272;8.590;2023-08-24T10:25:39;43.64;36.96;59.75;;
70245;Laerm;57637;49.272;8.590;2023-08-24T10:28:07;45.32;38.31;63.39;;
70245;Laerm;57637;49.272;8.590;2023-08-24T10:30:34;46.87;39.22;70.76;;
70245;Laerm;57637;49.272;8.590;2023-08-24T10:33:00;46.73;39.49;66.35;;
70245;Laerm;57637;49.272;8.590;2023-08-24T10:35:27;47.55;38.40;68.36;;
70245;Laerm;57637;49.272;8.590;2023-08-24T10:37:53;45.37;37.98;64.67;;
70245;Laerm;57637;49.272;8.590;2023-08-24T10:40:32;43.27;37.44;57.52;;
70245;Laerm;57637;49.272;8.590;2023-08-24T10:42:58;45.40;38.77;67.75;;
70245;Laerm;57637;49.272;8.590;2023-08-24T10:45:25;45.99;39.06;60.74;;
70245;Laerm;57637;49.272;8.590;2023-08-24T10:47:52;46.97;39.19;67.17;;
70245;Laerm;57637;49.272;8.590;2023-08-24T10:50:19;48.49;39.90;65.25;;
70245;Laerm;57637;49.272;8.590;2023-08-24T10:52:44;48.02;42.79;61.61;;
70245;Laerm;57637;49.272;8.590;2023-08-24T10:55:36;47.81;42.34;63.35;;
70245;Laerm;57637;49.272;8.590;2023-08-24T10:58:02;48.63;42.58;66.36;;
70245;Laerm;57637;49.272;8.590;2023-08-24T11:00:31;46.40;41.86;60.85;;
70245;Laerm;57637;49.272;8.590;2023-08-24T11:02:57;46.66;41.82;65.42;;
70245;Laerm;57637;49.272;8.590;2023-08-24T11:05:24;45.42;40.93;61.53;;
70245;Laerm;57637;49.272;8.590;2023-08-24T11:08:01;46.10;41.04;66.99;;
70245;Laerm;57637;49.272;8.590;2023-08-24T11:20:51;50.66;40.83;74.83;;
70245;Laerm;57637;49.272;8.590;2023-08-24T11:23:17;52.23;40.49;78.86;;
70245;Laerm;57637;49.272;8.590;2023-08-24T11:25:44;49.42;41.42;69.59;;
70245;Laerm;57637;49.272;8.590;2023-08-24T11:28:10;53.68;41.23;81.72;;
70245;Laerm;57637;49.272;8.590;2023-08-24T11:30:35;45.93;39.19;60.63;;
70245;Laerm;57637;49.272;8.590;2023-08-24T11:33:01;45.94;37.90;75.39;;
70245;Laerm;57637;49.272;8.590;2023-08-24T11:35:28;45.84;37.31;67.09;;
70245;Laerm;57637;49.272;8.590;2023-08-24T11:37:56;47.76;37.69;76.46;;
70245;Laerm;57637;49.272;8.590;2023-08-24T11:40:23;45.67;36.96;66.27;;
70245;Laerm;57637;49.272;8.590;2023-08-24T11:42:55;47.61;38.70;73.42;;
70245;Laerm;57637;49.272;8.590;2023-08-24T11:45:21;45.58;39.23;68.95;;
70245;Laerm;57637;49.272;8.590;2023-08-24T11:47:48;47.79;38.68;71.31;;
70245;Laerm;57637;49.272;8.590;2023-08-24T11:50:13;45.27;38.20;65.79;;
70245;Laerm;57637;49.272;8.590;2023-08-24T11:52:39;45.79;37.66;67.30;;
70245;Laerm;57637;49.272;8.590;2023-08-24T11:55:05;50.04;39.41;71.26;;
70245;Laerm;57637;49.272;8.590;2023-08-24T11:57:35;47.78;37.68;75.63;;
70245;Laerm;57637;49.272;8.590;2023-08-24T12:00:02;46.90;38.08;70.81;;
70245;Laerm;57637;49.272;8.590;2023-08-24T12:02:28;45.27;36.89;63.15;;
70245;Laerm;57637;49.272;8.590;2023-08-24T12:04:54;42.96;37.78;64.17;;
70245;Laerm;57637;49.272;8.590;2023-08-24T12:07:20;45.10;39.20;67.91;;
70245;Laerm;57637;49.272;8.590;2023-08-24T12:09:46;46.90;38.17;69.59;;
70245;Laerm;57637;49.272;8.590;2023-08-24T12:12:15;44.18;37.54;64.97;;
70245;Laerm;57637;49.272;8.590;2023-08-24T12:14:42;43.37;37.82;59.50;;
70245;Laerm;57637;49.272;8.590;2023-08-24T12:17:09;43.19;38.53;59.70;;
70245;Laerm;57637;49.272;8.590;2023-08-24T12:19:34;47.03;38.59;71.03;;
70245;Laerm;57637;49.272;8.590;2023-08-24T12:22:00;46.37;37.43;63.75;;
70245;Laerm;57637;49.272;8.590;2023-08-24T12:24:25;48.77;37.19;60.07;;
70245;Laerm;57637;49.272;8.590;2023-08-24T12:26:57;41.59;37.95;55.88;;
70245;Laerm;57637;49.272;8.590;2023-08-24T12:29:23;42.11;37.79;59.92;;
70245;Laerm;57637;49.272;8.590;2023-08-24T12:31:48;43.50;37.20;68.82;;
70245;Laerm;57637;49.272;8.590;2023-08-24T12:34:15;45.10;38.23;66.76;;
70245;Laerm;57637;49.272;8.590;2023-08-24T12:36:41;42.38;38.02;56.56;;
70245;Laerm;57637;49.272;8.590;2023-08-24T12:39:10;42.51;37.30;55.32;;
70245;Laerm;57637;49.272;8.590;2023-08-24T12:41:38;41.96;37.72;55.13;;
70245;Laerm;57637;49.272;8.590;2023-08-24T12:44:03;46.50;37.76;70.89;;
70245;Laerm;57637;49.272;8.590;2023-08-24T12:46:33;44.05;38.62;55.63;;
70245;Laerm;57637;49.272;8.590;2023-08-24T12:49:00;43.88;38.55;60.73;;
70245;Laerm;57637;49.272;8.590;2023-08-24T12:51:26;44.46;38.64;54.88;;
70245;Laerm;57637;49.272;8.590;2023-08-24T12:53:51;44.77;38.87;65.56;;
70245;Laerm;57637;49.272;8.590;2023-08-24T12:56:17;42.29;37.05;54.90;;
70245;Laerm;57637;49.272;8.590;2023-08-24T12:58:42;42.20;37.33;58.32;;
70245;Laerm;57637;49.272;8.590;2023-08-24T13:01:07;45.23;37.85;54.67;;
70245;Laerm;57637;49.272;8.590;2023-08-24T13:03:33;40.39;36.05;58.49;;
70245;Laerm;57637;49.272;8.590;2023-08-24T13:06:01;40.94;36.61;53.80;;
70245;Laerm;57637;49.272;8.590;2023-08-24T13:08:26;42.27;37.66;58.28;;
70245;Laerm;57637;49.272;8.590;2023-08-24T13:10:51;45.17;36.89;63.28;;
70245;Laerm;57637;49.272;8.590;2023-08-24T13:13:17;48.47;37.31;72.64;;
70245;Laerm;57637;49.272;8.590;2023-08-24T13:15:43;43.15;37.77;59.40;;
70245;Laerm;57637;49.272;8.590;2023-08-24T13:18:08;41.19;36.61;58.69;;
70245;Laerm;57637;49.272;8.590;2023-08-24T13:20:33;45.39;37.77;63.74;;
70245;Laerm;57637;49.272;8.590;2023-08-24T13:22:59;50.34;38.55;65.41;;
70245;Laerm;57637;49.272;8.590;2023-08-24T13:25:24;45.73;37.63;67.33;;
70245;Laerm;57637;49.272;8.590;2023-08-24T13:27:49;43.63;37.89;65.72;;
70245;Laerm;57637;49.272;8.590;2023-08-24T13:30:15;41.21;36.15;56.42;;
70245;Laerm;57637;49.272;8.590;2023-08-24T13:32:40;41.53;36.43;54.08;;
70245;Laerm;57637;49.272;8.590;2023-08-24T13:35:06;42.39;37.01;59.51;;
70245;Laerm;57637;49.272;8.590;2023-08-24T13:37:31;41.59;37.52;49.98;;
70245;Laerm;57637;49.272;8.590;2023-08-24T13:40:00;41.67;37.95;47.64;;
70245;Laerm;57637;49.272;8.590;2023-08-24T13:42:25;42.79;36.79;60.49;;
70245;Laerm;57637;49.272;8.590;2023-08-24T13:44:51;41.34;36.84;54.63;;
70245;Laerm;57637;49.272;8.590;2023-08-24T13:47:16;42.30;37.51;57.73;;
70245;Laerm;57637;49.272;8.590;2023-08-24T13:49:42;42.95;36.97;58.92;;
70245;Laerm;57637;49.272;8.590;2023-08-24T13:52:07;42.03;36.91;53.65;;